CES124 ZLXY-ZUUU
Flight info
| Callsign | CES124 |
|---|---|
| Flight time | N/A |
| Altitude | 43000 |
| Route | NSH9Z NSH W280 POLUS W279 ONEBA G212 SUBUL W230 AKDIK AKDIK6K |
| Aircraft | A359/H-SDE2E3GHIJ3J4J5LM1ORWXY/LB1D1 |
Departure
| Time | 2026-04-26 11:57 |
|---|---|
| Airport | Xi'an Xianyang International Airport (ZLXY) |
Arrival
| Time | N/A |
|---|---|
| Airport | Chengdu Shuangliu International Airport (ZUUU) |
| Time | Latitude | Longitude | Altitude | Speed | Heading |
|---|---|---|---|---|---|
| 2026-04-26 11:44 | 34.44127 | 108.75060 | 1579 ft | 0 kts | 324° |
| 2026-04-26 11:46 | 34.44117 | 108.75068 | 1579 ft | 3 kts | 324° |
| 2026-04-26 11:46 | 34.44102 | 108.75081 | 1588 ft | 3 kts | 324° |
| 2026-04-26 11:47 | 34.44088 | 108.75098 | 1588 ft | 3 kts | 289° |
| 2026-04-26 11:47 | 34.44085 | 108.75122 | 1583 ft | 3 kts | 246° |
| 2026-04-26 11:47 | 34.44088 | 108.75131 | 1588 ft | 0 kts | 233° |
| 2026-04-26 11:49 | 34.44088 | 108.75130 | 1588 ft | 0 kts | 233° |
| 2026-04-26 11:49 | 34.44070 | 108.75110 | 1588 ft | 9 kts | 224° |
| 2026-04-26 11:50 | 34.44019 | 108.75042 | 1579 ft | 9 kts | 246° |
| 2026-04-26 11:50 | 34.44027 | 108.74977 | 1579 ft | 4 kts | 261° |
| 2026-04-26 11:50 | 34.44015 | 108.74971 | 1579 ft | 1 kts | 195° |
| 2026-04-26 11:50 | 34.44001 | 108.74968 | 1579 ft | 2 kts | 196° |
| 2026-04-26 11:51 | 34.43996 | 108.74953 | 1563 ft | 4 kts | 255° |
| 2026-04-26 11:51 | 34.44002 | 108.74927 | 1564 ft | 5 kts | 299° |
| 2026-04-26 11:51 | 34.44037 | 108.74890 | 1564 ft | 8 kts | 318° |
| 2026-04-26 11:51 | 34.44033 | 108.74796 | 1564 ft | 11 kts | 242° |
| 2026-04-26 11:52 | 34.43979 | 108.74714 | 1565 ft | 14 kts | 229° |
| 2026-04-26 11:52 | 34.43931 | 108.74648 | 1565 ft | 17 kts | 229° |
| 2026-04-26 11:52 | 34.43849 | 108.74534 | 1565 ft | 20 kts | 230° |
| 2026-04-26 11:52 | 34.43751 | 108.74400 | 1564 ft | 23 kts | 229° |
| 2026-04-26 11:53 | 34.43674 | 108.74325 | 1562 ft | 13 kts | 188° |
| 2026-04-26 11:53 | 34.43590 | 108.74380 | 1562 ft | 16 kts | 138° |
| 2026-04-26 11:53 | 34.43499 | 108.74477 | 1562 ft | 19 kts | 139° |
| 2026-04-26 11:54 | 34.43266 | 108.74723 | 1562 ft | 25 kts | 139° |
| 2026-04-26 11:54 | 34.43127 | 108.74870 | 1563 ft | 28 kts | 139° |
| 2026-04-26 11:54 | 34.42975 | 108.75031 | 1577 ft | 30 kts | 139° |
| 2026-04-26 11:54 | 34.42812 | 108.75203 | 1578 ft | 33 kts | 139° |
| 2026-04-26 11:55 | 34.42668 | 108.75356 | 1578 ft | 20 kts | 139° |
| 2026-04-26 11:55 | 34.42546 | 108.75402 | 1578 ft | 19 kts | 214° |
| 2026-04-26 11:55 | 34.42451 | 108.75279 | 1577 ft | 22 kts | 228° |
| 2026-04-26 11:55 | 34.42344 | 108.75131 | 1577 ft | 25 kts | 227° |
| 2026-04-26 11:56 | 34.42241 | 108.75013 | 1576 ft | 17 kts | 192° |
| 2026-04-26 11:56 | 34.42132 | 108.75113 | 1577 ft | 14 kts | 94° |
| 2026-04-26 11:56 | 34.42176 | 108.75220 | 1577 ft | 16 kts | 49° |
| 2026-04-26 11:56 | 34.42227 | 108.75288 | 1577 ft | 17 kts | 47° |
| 2026-04-26 11:57 | 34.42249 | 108.75318 | 1578 ft | 25 kts | 49° |
| 2026-04-26 11:57 | 34.42633 | 108.75846 | 1580 ft | 140 kts | 48° |
| 2026-04-26 11:57 | 34.43464 | 108.76990 | 1947 ft | 207 kts | 46° |
| 2026-04-26 11:57 | 34.44497 | 108.78408 | 3009 ft | 243 kts | 47° |
| 2026-04-26 11:58 | 34.45658 | 108.80002 | 3648 ft | 260 kts | 49° |
| 2026-04-26 11:58 | 34.46834 | 108.81687 | 4435 ft | 259 kts | 49° |
| 2026-04-26 11:58 | 34.47955 | 108.83321 | 5537 ft | 244 kts | 49° |
| 2026-04-26 11:58 | 34.49049 | 108.84822 | 6555 ft | 234 kts | 47° |
| 2026-04-26 11:59 | 34.50128 | 108.86268 | 7280 ft | 236 kts | 46° |
| 2026-04-26 11:59 | 34.51253 | 108.87740 | 7954 ft | 240 kts | 47° |
| 2026-04-26 11:59 | 34.52383 | 108.89255 | 8611 ft | 244 kts | 46° |
| 2026-04-26 11:59 | 34.53512 | 108.90790 | 9320 ft | 246 kts | 46° |
| 2026-04-26 12:00 | 34.54654 | 108.92364 | 10038 ft | 248 kts | 47° |
| 2026-04-26 12:00 | 34.55773 | 108.93984 | 10680 ft | 253 kts | 48° |
| 2026-04-26 12:00 | 34.56898 | 108.95646 | 11301 ft | 257 kts | 48° |
| 2026-04-26 12:00 | 34.58023 | 108.97308 | 11925 ft | 261 kts | 48° |
| 2026-04-26 12:01 | 34.59185 | 108.99036 | 12574 ft | 266 kts | 50° |
| 2026-04-26 12:01 | 34.60111 | 109.01000 | 13159 ft | 273 kts | 69° |
| 2026-04-26 12:01 | 34.60332 | 109.03286 | 13758 ft | 278 kts | 94° |
| 2026-04-26 12:01 | 34.59706 | 109.05555 | 14027 ft | 296 kts | 121° |
| 2026-04-26 12:02 | 34.58179 | 109.07314 | 14234 ft | 314 kts | 150° |
| 2026-04-26 12:02 | 34.56053 | 109.08099 | 14464 ft | 328 kts | 173° |